Language: 


Des rapports , des résumés tant et plus, au choix de chacun....


Données statistiques de la station
Quotidien Rapport Mars 19, 2017 Unités:  Anglais    Métrique   les deux
« Précédent Jour
Suivant Jour »
Quotidien Hebdomadaire Mensuel Annuel Actuel
  Haut: Bas: Moyen:
Température: 55.2 °F 32 °F 52.5 °F
Pt de rosée: 52 °F 47.8 °F 50 °F
Humidité: 98 % 0 % 91 %
Vitesse du vent: 32 mph 7.8 mph 17.1 mph
Rafales: 32.2 mph - -
Vent:- - WSW
Pression: 29.9 in 0 in -
Précipitation: 0 in    
Historical Graphs
 
 
Données statistiques pour Mars 19, 2017
Heure Température Point de rosée Pression Vent Vitesse du vent Refales Humidité Pluie (taux horaire)
00:00 52.5 °F 52 °F 29.9 in WSW 14.5 mph 19.7 mph 98 % 0 in
00:05 52.3 °F 51.6 °F 29.9 in WSW 10.7 mph 19.7 mph 98 % 0 in
00:10 52.3 °F 51.6 °F 29.9 in West 12.8 mph 17.7 mph 98 % 0 in
00:15 52.3 °F 51.6 °F 29.9 in WSW 19.9 mph 19.9 mph 98 % 0 in
00:20 52.3 °F 51.6 °F 29.9 in WSW 13.9 mph 19.9 mph 98 % 0 in
00:25 52.3 °F 51.6 °F 29.9 in WSW 13.2 mph 18.6 mph 98 % 0 in
00:30 52.3 °F 51.6 °F 29.9 in WSW 17.7 mph 23.7 mph 98 % 0 in
00:35 52.3 °F 51.6 °F 29.9 in WSW 15.4 mph 23.7 mph 98 % 0 in
00:40 52.3 °F 51.6 °F 29.9 in West 16.1 mph 19.7 mph 98 % 0 in
00:45 52.3 °F 51.6 °F 29.9 in WSW 16.6 mph 19.7 mph 98 % 0 in
00:50 52.3 °F 51.6 °F 29.9 in WSW 12.8 mph 17.7 mph 98 % 0 in
00:55 52.3 °F 51.6 °F 29.9 in WSW 19.2 mph 19.7 mph 98 % 0 in
01:00 52.3 °F 51.6 °F 29.9 in WSW 11 mph 19.7 mph 98 % 0 in
01:05 52.3 °F 51.6 °F 29.9 in West 14.8 mph 21.3 mph 98 % 0 in
01:10 52.3 °F 51.6 °F 29.9 in West 17.4 mph 21.3 mph 98 % 0 in
01:15 52.3 °F 51.6 °F 29.9 in West 13 mph 17.4 mph 98 % 0 in
01:20 52.3 °F 51.6 °F 29.9 in West 9.8 mph 17.2 mph 98 % 0 in
01:25 52.3 °F 51.6 °F 29.9 in WSW 7.8 mph 17 mph 98 % 0 in
01:30 52.3 °F 51.6 °F 29.9 in WSW 13 mph 15.9 mph 98 % 0 in
01:35 52.3 °F 51.6 °F 29.9 in WSW 15.7 mph 17.7 mph 98 % 0 in
01:40 52.3 °F 51.6 °F 29.9 in West 13.2 mph 17.7 mph 98 % 0 in
01:45 52.2 °F 51.6 °F 29.9 in West 7.8 mph 16.6 mph 98 % 0 in
01:50 52.3 °F 51.6 °F 29.9 in WSW 12.8 mph 19.7 mph 98 % 0 in
01:55 52.3 °F 51.6 °F 29.9 in WSW 13.2 mph 19.7 mph 98 % 0 in
02:02 32 °F 51.8 °F 0 in West 15.2 mph 17.2 mph 0 % 0 in
02:07 52.2 °F 51.6 °F 29.9 in WSW 11.4 mph 17.7 mph 98 % 0 in
02:12 52.2 °F 51.6 °F 29.9 in WSW 13 mph 17.7 mph 98 % 0 in
02:17 52.2 °F 51.6 °F 29.9 in WSW 15.4 mph 18.8 mph 98 % 0 in
02:22 52.2 °F 51.6 °F 29.9 in WNW 15.4 mph 18.8 mph 98 % 0 in
02:27 52.2 °F 51.6 °F 29.9 in WSW 8.1 mph 18.1 mph 98 % 0 in
02:32 52.2 °F 51.6 °F 29.9 in WSW 10.1 mph 18.8 mph 98 % 0 in
02:37 52.2 °F 51.6 °F 29.9 in WSW 13.2 mph 18.8 mph 98 % 0 in
02:42 52.2 °F 51.6 °F 29.9 in WSW 12.5 mph 18.8 mph 98 % 0 in
02:47 52.2 °F 51.6 °F 29.9 in WSW 9.8 mph 17.4 mph 98 % 0 in
02:52 52.2 °F 51.6 °F 29.9 in WSW 16.8 mph 18.8 mph 98 % 0 in
02:57 52.2 °F 51.6 °F 29.9 in WSW 11 mph 19.2 mph 98 % 0 in
03:02 52.2 °F 51.6 °F 29.9 in West 18.8 mph 19.2 mph 98 % 0 in
03:07 52.2 °F 51.6 °F 29.9 in WSW 12.1 mph 21 mph 98 % 0 in
03:12 52.2 °F 51.6 °F 29.9 in West 14.8 mph 21 mph 98 % 0 in
03:17 52.2 °F 51.6 °F 29.9 in West 10.7 mph 17.4 mph 98 % 0 in
03:22 52 °F 51.4 °F 29.9 in WSW 12.3 mph 19 mph 98 % 0 in
03:27 52 °F 51.4 °F 29.9 in West 14.8 mph 19 mph 98 % 0 in
03:32 52 °F 51.4 °F 29.9 in WSW 16.6 mph 19.9 mph 98 % 0 in
03:37 52 °F 51.4 °F 29.9 in WSW 17.7 mph 19.9 mph 98 % 0 in
03:42 52 °F 51.4 °F 29.9 in WSW 15.2 mph 19.9 mph 98 % 0 in
03:49 52 °F 51.4 °F 29.9 in WSW 12.8 mph 17.4 mph 98 % 0 in
03:54 52 °F 51.4 °F 29.9 in WSW 18.6 mph 18.6 mph 98 % 0 in
03:59 52 °F 51.4 °F 29.9 in WSW 13.6 mph 18.6 mph 98 % 0 in
04:04 52 °F 51.4 °F 29.9 in WSW 10.3 mph 19.5 mph 98 % 0 in
04:09 52 °F 51.4 °F 29.9 in WSW 9.8 mph 19.5 mph 98 % 0 in
04:14 52 °F 51.4 °F 29.9 in West 21 mph 22.1 mph 98 % 0 in
04:19 52 °F 51.4 °F 29.9 in WSW 13.6 mph 22.1 mph 98 % 0 in
04:24 52 °F 51.4 °F 29.9 in WSW 11 mph 19.5 mph 98 % 0 in
04:27 52 °F 51.4 °F 29.9 in WSW 13.2 mph 17.4 mph 98 % 0 in
04:32 52 °F 51.4 °F 29.9 in West 13 mph 19.5 mph 98 % 0 in
04:37 52 °F 51.4 °F 29.9 in West 19.9 mph 20.4 mph 98 % 0 in
04:42 52 °F 51.4 °F 29.9 in WSW 21.9 mph 22.4 mph 98 % 0 in
04:47 52 °F 51.4 °F 29.9 in WSW 8.5 mph 22.4 mph 98 % 0 in
04:52 52 °F 51.4 °F 29.9 in West 14.5 mph 22.6 mph 98 % 0 in
04:57 52 °F 51.4 °F 29.9 in WSW 16.1 mph 22.6 mph 98 % 0 in
05:02 52 °F 51.4 °F 29.9 in WSW 8.7 mph 20.4 mph 98 % 0 in
05:07 52 °F 51.4 °F 29.9 in WSW 19.7 mph 23.3 mph 98 % 0 in
05:12 52 °F 51.4 °F 29.9 in West 22.1 mph 23.3 mph 98 % 0 in
05:17 52 °F 51.4 °F 29.9 in WSW 10.1 mph 22.1 mph 98 % 0 in
05:22 52 °F 51.4 °F 29.9 in West 17.2 mph 23.7 mph 98 % 0 in
05:27 52 °F 51.4 °F 29.8 in West 12.1 mph 23.7 mph 98 % 0 in
05:32 52 °F 51.4 °F 29.8 in West 13 mph 22.1 mph 98 % 0 in
05:37 52 °F 51.4 °F 29.8 in WSW 19.7 mph 20.8 mph 98 % 0 in
05:42 52 °F 51.4 °F 29.8 in WSW 14.5 mph 20.8 mph 98 % 0 in
05:47 52 °F 51.4 °F 29.8 in WSW 14.3 mph 20.1 mph 98 % 0 in
05:52 52 °F 51.4 °F 29.8 in West 22.4 mph 22.4 mph 98 % 0 in
05:57 52 °F 51.4 °F 29.8 in WSW 13 mph 23.3 mph 98 % 0 in
06:02 51.8 °F 51.3 °F 29.8 in WSW 17.7 mph 23.3 mph 98 % 0 in
06:07 51.8 °F 51.3 °F 29.8 in WSW 17 mph 22.4 mph 98 % 0 in
06:12 51.8 °F 51.3 °F 29.8 in West 22.4 mph 22.4 mph 98 % 0 in
06:17 51.8 °F 51.3 °F 29.8 in WSW 17.4 mph 23.3 mph 98 % 0 in
06:22 51.8 °F 51.3 °F 29.8 in West 20.1 mph 25.9 mph 98 % 0 in
06:27 51.8 °F 51.3 °F 29.8 in West 23.3 mph 25.9 mph 98 % 0 in
06:32 51.8 °F 51.3 °F 29.8 in West 22.8 mph 23.9 mph 98 % 0 in
06:37 52 °F 51.4 °F 29.8 in West 20.1 mph 23.3 mph 98 % 0 in
06:42 51.8 °F 51.3 °F 29.8 in West 14.8 mph 23 mph 98 % 0 in
06:47 51.8 °F 51.3 °F 29.8 in WSW 17.7 mph 20.6 mph 98 % 0 in
06:52 51.8 °F 51.3 °F 29.8 in WSW 12.8 mph 20.6 mph 98 % 0 in
06:57 51.8 °F 51.3 °F 29.8 in WSW 15.4 mph 22.4 mph 98 % 0 in
07:02 51.8 °F 50.9 °F 29.8 in West 17.9 mph 25.1 mph 97 % 0 in
07:07 51.8 °F 50.9 °F 29.8 in West 13.6 mph 25.1 mph 97 % 0 in
07:12 51.8 °F 50.9 °F 29.8 in West 19.5 mph 24.4 mph 97 % 0 in
07:17 51.8 °F 50.9 °F 29.8 in West 19 mph 23.7 mph 97 % 0 in
07:22 51.8 °F 50.9 °F 29.8 in WSW 16.8 mph 22.6 mph 97 % 0 in
07:27 51.8 °F 50.9 °F 29.8 in WSW 12.5 mph 22.1 mph 97 % 0 in
07:32 51.8 °F 50.9 °F 29.8 in WSW 12.5 mph 18.1 mph 97 % 0 in
07:37 51.8 °F 50.9 °F 29.8 in West 16.1 mph 18.1 mph 97 % 0 in
07:42 52 °F 51.1 °F 29.8 in WSW 23 mph 23 mph 97 % 0 in
07:47 52 °F 51.1 °F 29.8 in West 17.2 mph 23.9 mph 97 % 0 in
07:52 52.2 °F 51.1 °F 29.9 in WSW 10.7 mph 23.9 mph 96 % 0 in
07:57 52.2 °F 51.1 °F 29.9 in West 19 mph 22.4 mph 96 % 0 in
08:02 52.2 °F 51.1 °F 29.9 in West 15.4 mph 19.7 mph 96 % 0 in
08:07 52.3 °F 51.3 °F 29.9 in West 14.1 mph 19.7 mph 96 % 0 in
08:12 52.3 °F 51.3 °F 29.9 in West 13 mph 21.9 mph 96 % 0 in
08:17 52.3 °F 50.9 °F 29.9 in West 22.4 mph 22.4 mph 95 % 0 in
08:22 52.3 °F 50.9 °F 29.9 in WSW 15.2 mph 22.4 mph 95 % 0 in
08:27 52.3 °F 50.9 °F 29.9 in WSW 19.5 mph 22.1 mph 95 % 0 in
08:32 52.3 °F 50.9 °F 29.9 in WSW 24.6 mph 24.6 mph 95 % 0 in
08:37 52.3 °F 50.9 °F 29.9 in WSW 17.9 mph 26.6 mph 95 % 0 in
08:42 52.2 °F 50.7 °F 29.9 in West 23 mph 26.6 mph 95 % 0 in
08:47 52.2 °F 50.7 °F 29.9 in WSW 11 mph 24.6 mph 95 % 0 in
08:52 52.3 °F 50.9 °F 29.8 in West 17.2 mph 23 mph 95 % 0 in
08:57 52.3 °F 50.9 °F 29.8 in WSW 13 mph 21.5 mph 95 % 0 in
09:02 52.3 °F 50.9 °F 29.8 in West 13.2 mph 27.7 mph 95 % 0 in
09:07 52.5 °F 51.1 °F 29.8 in West 17.4 mph 27.7 mph 95 % 0 in
09:12 52.5 °F 50.7 °F 29.8 in WNW 23.3 mph 28 mph 94 % 0 in
09:17 52.5 °F 51.1 °F 29.8 in WSW 23.5 mph 28 mph 94 % 0 in
09:22 52.5 °F 51.1 °F 29.9 in WSW 19.7 mph 26.4 mph 94 % 0 in
09:27 52.5 °F 51.3 °F 29.9 in West 25.1 mph 26.8 mph 95 % 0 in
09:32 52.5 °F 51.1 °F 29.9 in WSW 21.5 mph 30.4 mph 94 % 0 in
09:35 52.5 °F 50.7 °F 29.9 in West 23 mph 30.4 mph 94 % 0 in
09:40 52.5 °F 50.7 °F 29.8 in WSW 22.6 mph 30.4 mph 94 % 0 in
09:45 52.5 °F 50.7 °F 29.8 in West 13.6 mph 24.6 mph 94 % 0 in
09:50 52.5 °F 51.1 °F 29.8 in WSW 21.5 mph 25.3 mph 94 % 0 in
09:55 52.5 °F 50.7 °F 29.9 in West 25.1 mph 28.6 mph 94 % 0 in
10:00 52.5 °F 50.5 °F 29.9 in WSW 19.2 mph 28.6 mph 93 % 0 in
10:05 52.5 °F 50.7 °F 29.9 in WSW 18.8 mph 28 mph 93 % 0 in
10:10 52.5 °F 50.7 °F 29.9 in WSW 16.6 mph 28 mph 93 % 0 in
10:15 52.9 °F 50.7 °F 29.9 in West 25.7 mph 26.2 mph 93 % 0 in
10:20 52.9 °F 50.5 °F 29.9 in WSW 17.7 mph 28.9 mph 92 % 0 in
10:25 52.9 °F 50.5 °F 29.9 in West 15.2 mph 28.9 mph 92 % 0 in
10:30 52.9 °F 50.5 °F 29.9 in WSW 22.1 mph 30.9 mph 92 % 0 in
10:35 52.9 °F 50.5 °F 29.9 in WSW 19 mph 30.9 mph 92 % 0 in
10:40 52.5 °F 50.4 °F 29.8 in WSW 23.5 mph 26.2 mph 92 % 0 in
10:45 52.9 °F 50.5 °F 29.8 in SW 15.9 mph 31.1 mph 92 % 0 in
10:50 52.9 °F 50.5 °F 29.8 in WSW 17.4 mph 31.1 mph 92 % 0 in
11:00 52.9 °F 50.5 °F 29.9 in West 15.2 mph 30.2 mph 92 % 0 in
11:05 53.1 °F 50.4 °F 29.9 in West 17.4 mph 28.9 mph 91 % 0 in
11:10 53.2 °F 50.4 °F 29.9 in WSW 19 mph 26.6 mph 90 % 0 in
11:15 53.2 °F 50.4 °F 29.9 in WSW 18.8 mph 28.4 mph 90 % 0 in
11:20 53.2 °F 50 °F 29.9 in West 22.1 mph 28.4 mph 89 % 0 in
11:25 53.4 °F 50.4 °F 29.8 in West 16.1 mph 27.3 mph 89 % 0 in
11:30 53.8 °F 50.2 °F 29.8 in West 15.7 mph 25.1 mph 88 % 0 in
11:35 54 °F 50.2 °F 29.8 in WSW 19.9 mph 30 mph 87 % 0 in
11:40 54 °F 50.2 °F 29.8 in West 20.4 mph 30 mph 87 % 0 in
11:45 53.8 °F 49.6 °F 29.8 in West 20.6 mph 30.6 mph 86 % 0 in
11:50 53.8 °F 49.3 °F 29.8 in WSW 22.4 mph 32 mph 85 % 0 in
11:55 53.8 °F 50.2 °F 29.8 in WSW 17.7 mph 32 mph 88 % 0 in
12:00 53.8 °F 49.8 °F 29.8 in WSW 12.8 mph 23.7 mph 87 % 0 in
12:05 54 °F 50.4 °F 29.8 in West 20.8 mph 23 mph 88 % 0 in
12:10 53.8 °F 49.8 °F 29.8 in WSW 17.4 mph 24.6 mph 87 % 0 in
12:15 54 °F 50.4 °F 29.8 in West 19.2 mph 24.6 mph 88 % 0 in
12:20 53.8 °F 49.6 °F 29.8 in West 18.8 mph 29.1 mph 86 % 0 in
12:25 53.8 °F 49.3 °F 29.8 in West 29.1 mph 30 mph 85 % 0 in
12:30 53.4 °F 49.5 °F 29.8 in WSW 24.4 mph 30 mph 86 % 0 in
12:35 53.4 °F 49.5 °F 29.8 in West 21.9 mph 28.6 mph 86 % 0 in
12:40 53.4 °F 49.5 °F 29.8 in West 23.9 mph 28.6 mph 86 % 0 in
12:45 53.4 °F 49.6 °F 29.8 in SW 15.4 mph 26.8 mph 87 % 0 in
12:50 53.4 °F 49.5 °F 29.8 in WSW 16.6 mph 27.7 mph 86 % 0 in
12:56 53.8 °F 49.8 °F 29.8 in WSW 23.3 mph 27.7 mph 87 % 0 in
13:01 53.8 °F 49.8 °F 29.8 in WSW 22.1 mph 27.3 mph 87 % 0 in
13:06 54 °F 50.2 °F 29.8 in West 23.7 mph 29.5 mph 87 % 0 in
13:11 54 °F 50.4 °F 29.8 in West 21 mph 29.5 mph 87 % 0 in
13:16 54 °F 50 °F 29.8 in WSW 25.3 mph 27.3 mph 86 % 0 in
13:21 54.1 °F 50.2 °F 29.8 in WSW 14.8 mph 27.3 mph 86 % 0 in
13:26 54.3 °F 50 °F 29.8 in West 10.1 mph 26.2 mph 85 % 0 in
13:31 54.9 °F 50.2 °F 29.8 in WSW 22.8 mph 26.4 mph 84 % 0 in
13:36 55 °F 49.5 °F 29.8 in WSW 22.6 mph 29.8 mph 81 % 0 in
13:41 55 °F 49.6 °F 29.8 in West 23.7 mph 29.8 mph 82 % 0 in
13:46 55.2 °F 49.3 °F 29.8 in WSW 25.1 mph 29.3 mph 80 % 0 in
13:47 55.2 °F 49.3 °F 29.8 in West 32 mph 32 mph 80 % 0 in
13:52 54.9 °F 48.9 °F 29.8 in WSW 17.7 mph 32 mph 80 % 0 in
13:57 54.9 °F 48.7 °F 29.8 in WSW 26.2 mph 30 mph 80 % 0 in
14:02 54.9 °F 48.9 °F 29.8 in West 12.8 mph 28.9 mph 81 % 0 in
14:07 54.9 °F 48.9 °F 29.8 in West 30.2 mph 30.2 mph 81 % 0 in
14:12 54.7 °F 48.9 °F 29.8 in WSW 23.9 mph 30.2 mph 81 % 0 in
14:17 54.7 °F 48.9 °F 29.8 in West 19.5 mph 30.2 mph 81 % 0 in
14:22 54.7 °F 48.9 °F 29.8 in West 15.2 mph 28.6 mph 81 % 0 in
14:27 54.7 °F 48.6 °F 29.8 in West 24.2 mph 28.6 mph 80 % 0 in
14:32 54.3 °F 48.4 °F 29.8 in West 13.9 mph 24.4 mph 80 % 0 in
14:37 54.1 °F 48.6 °F 29.8 in West 17.7 mph 23.9 mph 81 % 0 in
14:42 54.1 °F 48.6 °F 29.8 in WSW 23 mph 27.5 mph 81 % 0 in
14:47 54 °F 48 °F 29.8 in West 25.7 mph 27.5 mph 80 % 0 in
14:52 54 °F 47.8 °F 29.8 in WSW 25.9 mph 30 mph 80 % 0 in
14:57 53.4 °F 47.8 °F 29.8 in West 28.6 mph 30 mph 81 % 0 in
15:02 53.4 °F 48.2 °F 29.8 in WSW 23 mph 28.6 mph 82 % 0 in
15:07 53.4 °F 48.2 °F 29.8 in WSW 14.8 mph 26.6 mph 82 % 0 in
15:12 53.4 °F 48.6 °F 29.8 in WSW 17.9 mph 26.6 mph 83 % 0 in
15:17 53.4 °F 48.6 °F 29.8 in West 17.2 mph 25.7 mph 83 % 0 in
15:22 53.4 °F 48.6 °F 29.8 in West 22.8 mph 25.7 mph 83 % 0 in
15:27 53.8 °F 48.9 °F 29.8 in WSW 22.1 mph 24.4 mph 84 % 0 in
15:32 53.4 °F 48.7 °F 29.8 in West 17.4 mph 28.6 mph 84 % 0 in
15:37 53.4 °F 48.7 °F 29.8 in WSW 12.8 mph 28.6 mph 84 % 0 in
15:42 54 °F 49.1 °F 29.8 in SSW 18.6 mph 27.7 mph 84 % 0 in
15:47 54 °F 49.3 °F 29.8 in WSW 24.2 mph 25.9 mph 84 % 0 in
15:52 54 °F 48.9 °F 29.8 in West 15.4 mph 28.4 mph 83 % 0 in
15:57 54 °F 49.3 °F 29.8 in WSW 23.7 mph 28.4 mph 84 % 0 in
16:02 54 °F 48.9 °F 29.8 in West 22.4 mph 27.5 mph 83 % 0 in
16:07 54 °F 48.7 °F 29.8 in WSW 22.6 mph 32.2 mph 82 % 0 in
16:12 54 °F 48.9 °F 29.8 in West 18.6 mph 32.2 mph 83 % 0 in
16:17 54 °F 48.9 °F 29.8 in WSW 22.6 mph 29.8 mph 83 % 0 in
16:23 54 °F 48.9 °F 29.8 in WSW 20.4 mph 29.8 mph 83 % 0 in
16:28 54 °F 48.9 °F 29.8 in West 22.1 mph 28.4 mph 83 % 0 in
16:33 54 °F 48.9 °F 29.8 in West 20.4 mph 27.7 mph 83 % 0 in
16:38 54 °F 48.7 °F 29.8 in West 22.1 mph 28 mph 83 % 0 in
16:43 54 °F 49.1 °F 29.8 in WSW 25.3 mph 31.1 mph 84 % 0 in
16:48 53.8 °F 48.9 °F 29.8 in WSW 25.9 mph 31.1 mph 84 % 0 in
16:53 53.8 °F 48.9 °F 29.8 in West 22.1 mph 31.8 mph 84 % 0 in
16:58 53.8 °F 48.9 °F 29.8 in WSW 19.9 mph 31.8 mph 84 % 0 in
16:59 53.8 °F 49.3 °F 29.8 in WSW 17.7 mph 31.8 mph 85 % 0 in
17:04 53.8 °F 49.3 °F 29.8 in West 26.2 mph 26.2 mph 85 % 0 in
17:09 53.8 °F 49.3 °F 29.8 in WSW 24.2 mph 29.8 mph 85 % 0 in
17:14 53.8 °F 49.3 °F 29.8 in West 22.1 mph 29.8 mph 85 % 0 in
17:19 54 °F 49.5 °F 29.8 in West 19.9 mph 27.5 mph 85 % 0 in
17:24 53.8 °F 48.9 °F 29.8 in West 17.7 mph 27.5 mph 84 % 0 in
17:29 53.8 °F 48.9 °F 29.8 in West 18.1 mph 28.6 mph 84 % 0 in
17:34 53.8 °F 48.9 °F 29.8 in WSW 17.4 mph 28.6 mph 84 % 0 in
17:39 53.8 °F 49.3 °F 29.8 in West 22.8 mph 26.6 mph 85 % 0 in
17:44 53.8 °F 49.3 °F 29.8 in WSW 13.2 mph 26.4 mph 85 % 0 in
17:49 53.4 °F 49.1 °F 29.8 in WSW 23 mph 26.4 mph 85 % 0 in
17:54 53.4 °F 49.1 °F 29.8 in West 12.5 mph 28.6 mph 85 % 0 in
17:59 53.4 °F 49.1 °F 29.8 in WSW 17 mph 28.6 mph 85 % 0 in
18:04 53.2 °F 48.9 °F 29.8 in SW 12.8 mph 24.2 mph 85 % 0 in
18:09 53.2 °F 48.7 °F 29.8 in WSW 13.2 mph 22.4 mph 85 % 0 in
18:14 53.2 °F 48.7 °F 29.8 in West 12.1 mph 22.4 mph 85 % 0 in
18:19 53.1 °F 48.9 °F 29.8 in WSW 13 mph 23 mph 86 % 0 in
18:24 52.9 °F 48.7 °F 29.8 in WSW 13.2 mph 25.5 mph 86 % 0 in
18:29 52.9 °F 48.7 °F 29.8 in West 20.8 mph 25.5 mph 86 % 0 in
18:34 52.5 °F 48.6 °F 29.8 in WSW 14.8 mph 23.5 mph 86 % 0 in
18:39 52.5 °F 48.6 °F 29.8 in WSW 13.2 mph 23.5 mph 86 % 0 in
18:44 52.5 °F 48.6 °F 29.8 in West 11 mph 24.4 mph 86 % 0 in
18:49 52.5 °F 48.6 °F 29.8 in WSW 14.8 mph 24.4 mph 86 % 0 in
18:54 52.5 °F 48.6 °F 29.8 in West 19.2 mph 22.8 mph 86 % 0 in
18:59 52.5 °F 48.6 °F 29.8 in WSW 13.2 mph 23.9 mph 86 % 0 in
19:04 52.5 °F 48.4 °F 29.8 in WSW 21.9 mph 26.2 mph 86 % 0 in
19:09 52.5 °F 48.4 °F 29.8 in WSW 26.4 mph 27.1 mph 86 % 0 in
19:14 52.3 °F 48.2 °F 29.8 in WSW 14.5 mph 27.1 mph 86 % 0 in
19:19 52.2 °F 48.4 °F 29.8 in WSW 19.7 mph 25.1 mph 87 % 0 in
19:24 52.2 °F 48.4 °F 29.8 in WSW 19.9 mph 23.3 mph 87 % 0 in
19:29 52 °F 48.2 °F 29.8 in WSW 15.7 mph 23.3 mph 87 % 0 in
19:35 52 °F 48.2 °F 29.8 in WSW 19.7 mph 22.4 mph 87 % 0 in
19:40 52 °F 48.2 °F 29.8 in WSW 14.8 mph 22.6 mph 87 % 0 in
19:45 51.8 °F 48 °F 29.8 in WSW 12.3 mph 22.6 mph 87 % 0 in
19:50 51.8 °F 48 °F 29.8 in WSW 12.5 mph 20.8 mph 87 % 0 in
19:55 51.8 °F 48 °F 29.8 in WSW 14.3 mph 22.4 mph 87 % 0 in
20:00 51.8 °F 48 °F 29.8 in WSW 13 mph 23 mph 87 % 0 in
20:05 52 °F 48.2 °F 29.8 in WSW 15.2 mph 23.5 mph 87 % 0 in
20:10 52 °F 48.6 °F 29.8 in WSW 12.1 mph 23.5 mph 88 % 0 in
20:15 52 °F 48.6 °F 29.8 in West 15.2 mph 21.9 mph 88 % 0 in
20:20 52 °F 48.6 °F 29.8 in WSW 20.4 mph 23.5 mph 88 % 0 in
20:25 52.2 °F 48.7 °F 29.9 in West 13.4 mph 23.5 mph 88 % 0 in
20:27 52.2 °F 48.7 °F 29.9 in WSW 18.1 mph 20.4 mph 88 % 0 in
20:32 52.2 °F 48.7 °F 29.9 in WSW 13.2 mph 22.6 mph 88 % 0 in
20:37 52.2 °F 48.7 °F 29.8 in WSW 17 mph 23.9 mph 88 % 0 in
20:42 52.2 °F 48.7 °F 29.8 in WSW 24.4 mph 24.4 mph 88 % 0 in
20:47 52.2 °F 48.7 °F 29.8 in West 17.4 mph 24.4 mph 88 % 0 in
20:52 52.2 °F 48.7 °F 29.8 in WSW 14.1 mph 20.6 mph 88 % 0 in
20:57 52.2 °F 48.7 °F 29.8 in WSW 13.4 mph 22.6 mph 88 % 0 in
21:02 52.2 °F 48.7 °F 29.8 in SW 22.6 mph 23 mph 88 % 0 in
21:07 52.2 °F 48.7 °F 29.9 in WSW 19.7 mph 23 mph 88 % 0 in
21:12 52 °F 48.6 °F 29.9 in WSW 15.4 mph 19.7 mph 88 % 0 in
21:17 52 °F 48.6 °F 29.9 in WSW 13 mph 19.2 mph 88 % 0 in
21:22 52 °F 48.6 °F 29.9 in West 19.2 mph 19.2 mph 88 % 0 in
21:27 52 °F 48.6 °F 29.9 in West 17 mph 19.2 mph 88 % 0 in
21:32 52 °F 48.2 °F 29.9 in WSW 19.2 mph 19.2 mph 87 % 0 in
21:37 51.8 °F 48 °F 29.9 in WSW 13.2 mph 20.4 mph 87 % 0 in
21:42 51.8 °F 48.4 °F 29.9 in WSW 13.2 mph 20.4 mph 88 % 0 in
21:47 51.8 °F 48.4 °F 29.9 in WSW 15.4 mph 17.2 mph 88 % 0 in
21:53 51.6 °F 48 °F 29.9 in WSW 17.7 mph 19 mph 88 % 0 in
21:58 51.6 °F 48 °F 29.9 in WSW 12.5 mph 19 mph 88 % 0 in
22:03 51.6 °F 47.8 °F 29.9 in West 8.5 mph 17.7 mph 87 % 0 in
22:08 51.6 °F 47.8 °F 29.9 in WSW 12.5 mph 17.9 mph 87 % 0 in
22:13 51.6 °F 47.8 °F 29.9 in WSW 14.5 mph 17.9 mph 87 % 0 in
22:18 51.6 °F 47.8 °F 29.9 in WSW 15.4 mph 21 mph 87 % 0 in
22:23 51.4 °F 48 °F 29.8 in WSW 12.5 mph 21 mph 88 % 0 in
22:28 51.3 °F 47.8 °F 29.8 in WSW 12.3 mph 17.4 mph 88 % 0 in
22:33 51.3 °F 48 °F 29.8 in WSW 10.7 mph 17.2 mph 89 % 0 in
22:43 51.3 °F 48.4 °F 29.8 in West 13.4 mph 17.7 mph 90 % 0 in
22:48 51.3 °F 48.4 °F 29.8 in WSW 11 mph 17.7 mph 90 % 0 in
22:53 51.3 °F 48.4 °F 29.8 in WSW 10.1 mph 17.2 mph 90 % 0 in
22:58 51.3 °F 48.7 °F 29.8 in WSW 10.5 mph 17.2 mph 91 % 0 in
23:03 51.3 °F 48.7 °F 29.8 in WSW 13.2 mph 15.4 mph 91 % 0 in
23:08 51.3 °F 48.7 °F 29.8 in WSW 15.2 mph 17.7 mph 91 % 0 in
23:13 51.3 °F 48.7 °F 29.8 in WSW 8.1 mph 17.7 mph 91 % 0 in
23:18 51.3 °F 48.7 °F 29.8 in WSW 10.7 mph 17 mph 91 % 0 in
23:23 51.3 °F 48.7 °F 29.8 in WSW 10.3 mph 17 mph 91 % 0 in
23:28 51.3 °F 48.7 °F 29.8 in WSW 13.2 mph 15.4 mph 91 % 0 in
23:33 51.3 °F 48.9 °F 29.8 in WSW 13.9 mph 15.7 mph 92 % 0 in
23:38 51.1 °F 48.7 °F 29.8 in West 10.5 mph 17.4 mph 92 % 0 in
23:43 51.3 °F 48.9 °F 29.8 in WSW 12.3 mph 17.7 mph 92 % 0 in
23:48 51.1 °F 48.7 °F 29.8 in WSW 12.8 mph 17.7 mph 92 % 0 in
23:53 51.3 °F 49.3 °F 29.8 in West 13.6 mph 17.2 mph 93 % 0 in
23:58 51.3 °F 49.3 °F 29.8 in WSW 11 mph 17.2 mph 93 % 0 in
Le Gheer Warneton
Courtoisie de Weather Underground - 2.25 mb

Mise a jour : 18/12/2017 04:10:17
Généré par Cumulus 1.9.4 (1099)